createdAt,value
2019-02-19T00:01:04.124Z,76.30
2019-02-19T00:03:37.056Z,76.20
2019-02-19T00:06:10.018Z,76.40
2019-02-19T00:08:43.165Z,76.30
2019-02-19T00:11:16.465Z,76.30
2019-02-19T00:13:49.348Z,76.80
2019-02-19T00:16:22.310Z,77.00
2019-02-19T00:18:55.055Z,77.10
2019-02-19T00:21:27.890Z,77.10
2019-02-19T00:24:00.968Z,77.50
2019-02-19T00:26:33.989Z,77.40
2019-02-19T00:29:06.964Z,77.00
2019-02-19T00:31:39.929Z,76.80
2019-02-19T00:34:12.854Z,76.50
2019-02-19T00:36:45.633Z,76.50
2019-02-19T00:39:18.621Z,76.40
2019-02-19T00:41:51.505Z,76.30
2019-02-19T00:44:24.434Z,76.40
2019-02-19T00:46:57.321Z,76.40
2019-02-19T00:49:30.137Z,76.70
2019-02-19T00:52:03.221Z,76.90
2019-02-19T00:54:36.068Z,76.80
2019-02-19T00:57:09.049Z,76.90
2019-02-19T00:59:41.864Z,76.90
2019-02-19T01:02:14.919Z,77.00
2019-02-19T01:04:47.850Z,76.80
2019-02-19T01:07:24.304Z,77.50
2019-02-19T01:09:57.547Z,77.50
2019-02-19T01:12:30.805Z,77.30
2019-02-19T01:15:04.237Z,77.20
2019-02-19T01:17:37.189Z,77.00
2019-02-19T01:20:10.185Z,76.80
2019-02-19T01:22:43.129Z,76.70
2019-02-19T01:25:16.095Z,76.70
2019-02-19T01:27:48.995Z,76.50
2019-02-19T01:30:22.116Z,76.80
2019-02-19T01:32:55.153Z,77.10
2019-02-19T01:35:27.999Z,77.70
2019-02-19T01:38:00.979Z,77.60
2019-02-19T01:40:33.756Z,77.40
2019-02-19T01:43:06.759Z,78.10
2019-02-19T01:45:39.565Z,78.30
2019-02-19T01:48:12.625Z,78.30
2019-02-19T01:50:45.399Z,78.40
2019-02-19T01:53:18.486Z,78.50
2019-02-19T01:55:51.372Z,78.60
2019-02-19T01:58:24.372Z,78.30
2019-02-19T02:00:57.577Z,78.40
2019-02-19T02:03:30.625Z,78.90
2019-02-19T02:06:03.661Z,79.30
2019-02-19T02:08:36.717Z,78.70
2019-02-19T02:11:09.677Z,78.60
2019-02-19T02:13:42.726Z,78.50
2019-02-19T02:16:15.546Z,78.90
2019-02-19T02:18:48.390Z,79.40
2019-02-19T02:21:21.350Z,79.00
2019-02-19T02:23:54.282Z,78.70
2019-02-19T02:26:27.171Z,78.90
2019-02-19T02:29:00.176Z,79.00
2019-02-19T02:31:33.102Z,79.10
2019-02-19T02:34:06.101Z,79.30
2019-02-19T02:36:38.927Z,79.60
2019-02-19T02:39:11.946Z,79.60
2019-02-19T02:41:44.676Z,79.80
2019-02-19T02:44:17.676Z,80.00
2019-02-19T02:46:50.601Z,80.00
2019-02-19T02:49:23.554Z,79.90
2019-02-19T02:51:56.492Z,79.50
2019-02-19T02:54:29.450Z,79.60
2019-02-19T02:57:03.054Z,79.00
2019-02-19T02:59:36.151Z,78.60
2019-02-19T03:02:08.949Z,78.40
2019-02-19T03:04:42.737Z,78.30
2019-02-19T03:07:23.720Z,78.30
2019-02-19T03:09:56.795Z,78.00
2019-02-19T03:12:29.589Z,78.00
2019-02-19T03:15:02.990Z,78.00
2019-02-19T03:17:36.176Z,78.30
2019-02-19T03:20:09.037Z,78.60
2019-02-19T03:22:41.911Z,78.60
2019-02-19T03:25:14.774Z,78.80
2019-02-19T03:27:47.645Z,79.40
2019-02-19T03:30:20.487Z,79.10
2019-02-19T03:32:54.348Z,79.40
2019-02-19T03:35:27.316Z,79.90
2019-02-19T03:38:00.157Z,80.00
2019-02-19T03:40:33.224Z,80.20
2019-02-19T03:43:06.243Z,80.90
2019-02-19T03:45:39.352Z,81.30
2019-02-19T03:48:12.398Z,81.20
2019-02-19T03:50:45.282Z,81.20
2019-02-19T03:53:18.177Z,81.70
2019-02-19T03:55:51.013Z,82.60
2019-02-19T03:58:24.011Z,82.70
2019-02-19T04:00:56.884Z,83.30
2019-02-19T04:03:29.792Z,83.90
2019-02-19T04:06:02.568Z,84.10
2019-02-19T04:08:35.359Z,84.20
2019-02-19T04:11:08.277Z,84.60
2019-02-19T04:13:41.299Z,84.60
2019-02-19T04:16:21.131Z,84.60
2019-02-19T04:18:48.775Z,84.80
2019-02-19T04:21:21.722Z,85.00
2019-02-19T04:23:54.430Z,86.00
2019-02-19T04:26:27.388Z,85.20
2019-02-19T04:29:00.482Z,85.50
2019-02-19T04:31:33.593Z,85.70
2019-02-19T04:34:06.719Z,85.80
2019-02-19T04:36:39.799Z,86.00
2019-02-19T04:39:12.712Z,87.10
2019-02-19T04:41:46.040Z,87.80
2019-02-19T04:44:18.870Z,88.10
2019-02-19T04:46:51.756Z,89.80
2019-02-19T04:49:24.688Z,91.30
2019-02-19T04:51:57.523Z,91.60
2019-02-19T04:54:30.305Z,92.50
2019-02-19T04:57:03.327Z,93.20
2019-02-19T04:59:36.177Z,93.90
2019-02-19T05:02:09.250Z,94.90
2019-02-19T05:04:42.129Z,95.60
2019-02-19T05:07:15.318Z,96.70
2019-02-19T05:09:48.481Z,97.70
2019-02-19T05:12:21.602Z,98.30
2019-02-19T05:14:54.589Z,98.80
2019-02-19T05:17:27.445Z,99.30
2019-02-19T05:20:00.294Z,98.80
2019-02-19T05:22:33.199Z,99.60
2019-02-19T05:25:06.209Z,99.60
2019-02-19T05:27:39.130Z,99.80
2019-02-19T05:30:12.109Z,99.30
2019-02-19T05:32:44.840Z,99.00
2019-02-19T05:35:17.938Z,99.80
2019-02-19T05:37:50.945Z,99.80
2019-02-19T05:40:24.825Z,99.80
2019-02-19T05:42:58.059Z,99.90
2019-02-19T05:45:31.003Z,99.90
2019-02-19T05:48:05.340Z,99.90
2019-02-19T05:50:38.545Z,99.90
2019-02-19T05:53:11.400Z,99.90
2019-02-19T05:55:44.325Z,99.70
2019-02-19T05:58:17.423Z,99.30
2019-02-19T06:00:50.317Z,98.90
2019-02-19T06:03:23.194Z,98.80
2019-02-19T06:05:56.098Z,98.50
2019-02-19T06:08:29.154Z,98.60
2019-02-19T06:11:01.958Z,98.70
2019-02-19T06:13:34.695Z,99.10
2019-02-19T06:16:07.576Z,99.30
2019-02-19T06:18:40.554Z,98.90
2019-02-19T06:21:13.420Z,98.90
2019-02-19T06:23:46.256Z,98.90
2019-02-19T06:26:19.127Z,99.10
2019-02-19T06:28:52.250Z,98.90
2019-02-19T06:31:25.151Z,99.20
2019-02-19T06:33:57.955Z,99.50
2019-02-19T06:36:30.751Z,99.50
2019-02-19T06:39:04.660Z,99.50
2019-02-19T06:41:37.729Z,99.40
2019-02-19T06:44:10.755Z,99.70
2019-02-19T06:46:43.575Z,99.80
2019-02-19T06:49:16.456Z,99.50
2019-02-19T06:51:49.605Z,99.50
2019-02-19T06:54:22.679Z,99.60
2019-02-19T06:56:55.885Z,99.60
2019-02-19T06:59:29.269Z,99.90
2019-02-19T07:02:11.495Z,99.90
2019-02-19T07:04:48.759Z,99.90
2019-02-19T07:07:21.786Z,99.90
2019-02-19T07:09:54.875Z,99.90
2019-02-19T07:12:27.974Z,99.90
2019-02-19T07:15:01.078Z,99.90
2019-02-19T07:17:34.251Z,99.90
2019-02-19T07:20:07.476Z,99.90
2019-02-19T07:22:40.470Z,99.90
2019-02-19T07:25:13.561Z,99.90
2019-02-19T07:27:46.367Z,99.90
2019-02-19T07:30:19.255Z,99.60
2019-02-19T07:32:52.016Z,99.50
2019-02-19T07:35:24.989Z,99.50
2019-02-19T07:37:57.791Z,99.60
2019-02-19T07:40:30.702Z,99.40
2019-02-19T07:43:03.523Z,99.30
2019-02-19T07:45:36.402Z,99.10
2019-02-19T07:48:09.389Z,98.90
2019-02-19T07:50:42.490Z,99.10
2019-02-19T07:53:15.609Z,98.70
2019-02-19T07:55:48.578Z,98.70
2019-02-19T07:58:21.475Z,98.30
2019-02-19T08:00:54.690Z,98.40
2019-02-19T08:03:27.850Z,98.10
2019-02-19T08:06:00.813Z,97.80
2019-02-19T08:08:33.993Z,97.50
2019-02-19T08:11:07.366Z,97.40
2019-02-19T08:13:40.455Z,97.20
2019-02-19T08:16:13.430Z,96.80
2019-02-19T08:18:46.397Z,96.50
2019-02-19T08:21:19.415Z,96.50
2019-02-19T08:23:53.292Z,96.00
2019-02-19T08:26:26.227Z,95.90
2019-02-19T08:29:07.138Z,95.40
2019-02-19T08:31:34.376Z,95.50
2019-02-19T08:34:07.221Z,95.80
2019-02-19T08:36:40.143Z,95.20
2019-02-19T08:39:13.346Z,95.30
2019-02-19T08:41:46.620Z,95.00
2019-02-19T08:44:19.566Z,94.60
2019-02-19T08:46:52.582Z,94.50
2019-02-19T08:49:25.608Z,94.90
2019-02-19T08:51:58.686Z,94.90
2019-02-19T08:54:31.862Z,94.10
2019-02-19T08:57:04.922Z,94.50
2019-02-19T08:59:38.119Z,93.30
2019-02-19T09:02:11.248Z,92.90
2019-02-19T09:04:44.311Z,92.80
2019-02-19T09:07:17.304Z,92.50
2019-02-19T09:09:50.276Z,92.10
2019-02-19T09:12:23.108Z,92.40
2019-02-19T09:14:56.064Z,93.10
2019-02-19T09:17:29.289Z,92.40
2019-02-19T09:20:02.322Z,92.40
2019-02-19T09:22:35.575Z,92.20
2019-02-19T09:25:08.863Z,91.90
2019-02-19T09:27:43.317Z,91.40
2019-02-19T09:30:16.788Z,90.80
2019-02-19T09:32:50.111Z,91.40
2019-02-19T09:35:23.135Z,91.50
2019-02-19T09:37:56.331Z,91.70
2019-02-19T09:40:29.313Z,91.20
2019-02-19T09:43:02.331Z,91.30
2019-02-19T09:45:35.437Z,90.20
2019-02-19T09:48:08.422Z,90.20
2019-02-19T09:50:41.458Z,90.70
2019-02-19T09:53:14.710Z,90.50
2019-02-19T09:55:47.738Z,90.70
2019-02-19T09:58:20.873Z,91.00
2019-02-19T10:00:54.087Z,90.60
2019-02-19T10:03:27.195Z,90.00
2019-02-19T10:06:00.344Z,90.10
2019-02-19T10:08:34.560Z,88.60
2019-02-19T10:11:07.443Z,87.00
2019-02-19T10:13:40.712Z,84.50
2019-02-19T10:16:13.690Z,83.50
2019-02-19T10:18:46.832Z,82.50
2019-02-19T10:21:19.740Z,81.90
2019-02-19T10:23:52.703Z,80.70
2019-02-19T10:26:25.772Z,81.00
2019-02-19T10:28:58.689Z,80.30
2019-02-19T10:31:31.661Z,78.70
2019-02-19T10:34:04.726Z,78.00
2019-02-19T10:36:38.710Z,79.50
2019-02-19T10:39:12.037Z,80.00
2019-02-19T10:41:45.347Z,78.60
2019-02-19T10:44:18.208Z,78.40
2019-02-19T10:46:51.047Z,74.50
2019-02-19T10:49:24.095Z,73.40
2019-02-19T10:51:57.025Z,71.50
2019-02-19T10:54:29.875Z,69.20
2019-02-19T10:57:03.028Z,69.00
2019-02-19T10:59:36.120Z,67.10
2019-02-19T11:02:09.070Z,65.10
2019-02-19T11:04:42.105Z,61.80
2019-02-19T11:07:15.080Z,59.30
2019-02-19T11:09:48.271Z,59.20
2019-02-19T11:12:22.240Z,58.50
2019-02-19T11:14:55.325Z,58.20
2019-02-19T11:17:29.153Z,57.00
2019-02-19T11:20:02.141Z,57.70
2019-02-19T11:22:35.246Z,57.80
2019-02-19T11:25:09.907Z,58.20
2019-02-19T11:27:42.864Z,55.80
2019-02-19T11:30:16.123Z,55.60
2019-02-19T11:32:49.131Z,55.40
2019-02-19T11:35:22.086Z,56.00
2019-02-19T11:37:55.061Z,55.80
2019-02-19T11:40:27.857Z,56.00
2019-02-19T11:43:00.768Z,55.20
2019-02-19T11:45:33.799Z,56.60
2019-02-19T11:48:07.023Z,55.80
2019-02-19T11:50:40.088Z,56.20
2019-02-19T11:53:13.184Z,54.30
2019-02-19T11:55:46.098Z,54.50
2019-02-19T11:58:18.973Z,54.70
2019-02-19T12:00:51.994Z,56.10
2019-02-19T12:03:25.465Z,55.20
2019-02-19T12:05:58.726Z,54.90
2019-02-19T12:08:38.826Z,53.60
2019-02-19T12:11:06.581Z,54.70
2019-02-19T12:13:39.624Z,55.50
2019-02-19T12:16:12.628Z,57.00
2019-02-19T12:18:46.440Z,58.50
2019-02-19T12:21:19.886Z,57.90
2019-02-19T12:23:52.689Z,57.00
2019-02-19T12:26:25.920Z,57.00
2019-02-19T12:28:59.973Z,56.20
2019-02-19T12:31:32.931Z,54.20
2019-02-19T12:34:06.087Z,55.10
2019-02-19T12:36:39.069Z,55.70
2019-02-19T12:39:12.059Z,55.40
2019-02-19T12:41:45.291Z,56.40
2019-02-19T12:44:18.435Z,57.50
2019-02-19T12:46:51.530Z,57.40
2019-02-19T12:49:24.446Z,58.40
2019-02-19T12:51:57.869Z,60.40
2019-02-19T12:54:30.922Z,63.00
2019-02-19T12:57:03.915Z,64.90
2019-02-19T12:59:36.894Z,65.90
2019-02-19T13:02:11.166Z,65.00
2019-02-19T13:04:44.265Z,62.40
2019-02-19T13:07:17.503Z,61.40
2019-02-19T13:09:50.661Z,61.10
2019-02-19T13:12:23.623Z,59.40
2019-02-19T13:14:56.731Z,58.20
2019-02-19T13:17:29.828Z,57.40
2019-02-19T13:20:03.217Z,58.40
2019-02-19T13:22:36.416Z,58.60
2019-02-19T13:25:10.011Z,58.70
2019-02-19T13:27:43.231Z,59.30
2019-02-19T13:30:16.098Z,60.60
2019-02-19T13:32:49.236Z,60.00
2019-02-19T13:35:22.166Z,60.70
2019-02-19T13:37:55.299Z,61.00
2019-02-19T13:40:28.473Z,62.20
2019-02-19T13:43:01.433Z,62.40
2019-02-19T13:45:34.466Z,58.40
2019-02-19T13:48:07.456Z,57.30
2019-02-19T13:50:40.403Z,58.70
2019-02-19T13:53:18.354Z,59.40
2019-02-19T13:55:53.745Z,59.50
2019-02-19T13:58:26.695Z,61.70
2019-02-19T14:00:59.947Z,62.20
2019-02-19T14:03:32.952Z,64.30
2019-02-19T14:06:06.093Z,63.70
2019-02-19T14:08:39.222Z,63.80
2019-02-19T14:11:12.447Z,61.50
2019-02-19T14:13:57.339Z,58.80
2019-02-19T14:16:37.738Z,57.40
2019-02-19T14:19:36.120Z,56.10
2019-02-19T14:22:40.907Z,54.60
2019-02-19T14:25:42.806Z,52.40
2019-02-19T14:28:43.383Z,52.20
2019-02-19T14:31:41.856Z,52.40
2019-02-19T14:34:33.133Z,53.50
2019-02-19T14:37:24.120Z,51.70
2019-02-19T14:40:10.693Z,49.40
2019-02-19T14:43:03.387Z,49.30
2019-02-19T14:45:58.721Z,52.20
2019-02-19T14:48:52.196Z,52.00
2019-02-19T14:51:56.478Z,51.60
2019-02-19T14:54:47.949Z,49.60
2019-02-19T14:57:34.938Z,47.80
2019-02-19T15:00:19.674Z,49.20
2019-02-19T15:03:15.309Z,46.70
2019-02-19T15:05:59.403Z,46.20
2019-02-19T15:08:48.824Z,45.20
2019-02-19T15:11:39.614Z,47.00
2019-02-19T15:14:34.877Z,50.00
2019-02-19T15:17:27.323Z,53.40
2019-02-19T15:20:18.786Z,55.20
2019-02-19T15:23:14.102Z,58.10
2019-02-19T15:26:01.243Z,60.70
2019-02-19T15:28:53.648Z,62.80
2019-02-19T15:31:46.141Z,63.60
2019-02-19T15:34:57.080Z,62.90
2019-02-19T15:37:40.947Z,62.30
2019-02-19T15:40:36.528Z,62.20
2019-02-19T15:43:29.324Z,61.60
2019-02-19T15:46:20.424Z,62.10
2019-02-19T15:49:11.855Z,63.10
2019-02-19T15:52:16.517Z,64.10
2019-02-19T15:55:15.136Z,64.60
2019-02-19T15:58:07.509Z,64.60
2019-02-19T16:00:42.970Z,65.30
2019-02-19T16:03:30.768Z,66.00
2019-02-19T16:06:23.407Z,65.20
2019-02-19T16:09:06.397Z,65.80
2019-02-19T16:12:00.620Z,67.10
2019-02-19T16:14:56.151Z,68.00
2019-02-19T16:17:47.448Z,68.40
2019-02-19T16:20:42.320Z,69.90
2019-02-19T16:23:33.545Z,69.50
2019-02-19T16:26:19.168Z,69.70
2019-02-19T16:29:02.059Z,69.70
2019-02-19T16:31:54.620Z,70.00
2019-02-19T16:34:48.582Z,70.10
2019-02-19T16:37:39.858Z,70.50
2019-02-19T16:40:35.768Z,71.30
2019-02-19T16:43:37.158Z,71.70
2019-02-19T16:46:25.375Z,72.10
2019-02-19T16:49:08.248Z,71.70
2019-02-19T16:51:51.948Z,72.40
2019-02-19T16:54:38.413Z,72.20
2019-02-19T16:57:17.915Z,72.10
2019-02-19T17:00:16.284Z,72.10
2019-02-19T17:03:00.811Z,72.30
2019-02-19T17:05:56.364Z,72.20
2019-02-19T17:08:38.778Z,72.40
2019-02-19T17:11:20.985Z,72.50
2019-02-19T17:14:13.668Z,72.90
2019-02-19T17:17:15.093Z,73.30
2019-02-19T17:20:29.202Z,73.60
2019-02-19T17:23:10.629Z,74.50
2019-02-19T17:26:01.776Z,73.90
2019-02-19T17:28:43.053Z,73.80
2019-02-19T17:31:44.080Z,74.40
2019-02-19T17:34:42.349Z,74.50
2019-02-19T17:37:33.819Z,75.20
2019-02-19T17:40:25.239Z,75.50
2019-02-19T17:43:12.870Z,75.70
2019-02-19T17:46:08.974Z,75.60
2019-02-19T17:49:10.438Z,76.40
2019-02-19T17:52:05.759Z,76.90
2019-02-19T17:54:57.070Z,76.80
2019-02-19T17:57:39.649Z,77.30
2019-02-19T18:00:32.035Z,77.70
2019-02-19T18:03:17.410Z,77.80
2019-02-19T18:06:08.647Z,78.30
2019-02-19T18:08:53.004Z,78.80
2019-02-19T18:11:44.011Z,79.30
2019-02-19T18:14:42.535Z,80.20
2019-02-19T18:17:26.459Z,79.70
2019-02-19T18:19:59.468Z,80.20
2019-02-19T18:22:32.516Z,80.20
2019-02-19T18:25:05.888Z,80.90
2019-02-19T18:27:38.876Z,81.10
2019-02-19T18:30:12.064Z,81.10
2019-02-19T18:32:44.989Z,81.80
2019-02-19T18:35:18.096Z,82.30
2019-02-19T18:37:51.134Z,82.50
2019-02-19T18:40:24.029Z,82.10
2019-02-19T18:42:57.082Z,82.80
2019-02-19T18:45:30.085Z,83.30
2019-02-19T18:48:03.010Z,83.40
2019-02-19T18:50:35.980Z,83.90
2019-02-19T18:53:09.208Z,84.20
2019-02-19T18:55:42.101Z,84.60
2019-02-19T18:58:15.159Z,84.90
2019-02-19T19:00:48.389Z,84.90
2019-02-19T19:03:21.455Z,85.50
2019-02-19T19:05:54.521Z,85.60
2019-02-19T19:08:27.767Z,85.90
2019-02-19T19:11:01.006Z,86.10
2019-02-19T19:13:33.995Z,86.00
2019-02-19T19:16:07.186Z,85.70
2019-02-19T19:18:40.491Z,86.20
2019-02-19T19:21:13.332Z,86.80
2019-02-19T19:23:46.689Z,88.10
2019-02-19T19:26:19.842Z,87.20
2019-02-19T19:28:52.936Z,87.60
2019-02-19T19:31:33.187Z,87.80
2019-02-19T19:34:00.875Z,87.70
2019-02-19T19:36:33.872Z,87.80
2019-02-19T19:39:07.109Z,88.00
2019-02-19T19:41:41.911Z,88.20
2019-02-19T19:44:15.022Z,88.20
2019-02-19T19:46:48.103Z,88.50
2019-02-19T19:49:21.201Z,88.90
2019-02-19T19:51:55.886Z,88.70
2019-02-19T19:54:28.768Z,88.80
2019-02-19T19:57:01.942Z,89.20
2019-02-19T19:59:35.400Z,89.20
2019-02-19T20:02:08.893Z,88.90
2019-02-19T20:04:41.928Z,89.30
2019-02-19T20:07:15.385Z,89.50
2019-02-19T20:09:48.323Z,89.70
2019-02-19T20:12:21.172Z,89.50
2019-02-19T20:14:54.191Z,90.00
2019-02-19T20:17:27.201Z,90.00
2019-02-19T20:20:00.302Z,90.00
2019-02-19T20:22:33.258Z,90.00
2019-02-19T20:25:08.392Z,90.10
2019-02-19T20:27:41.347Z,90.10
2019-02-19T20:30:14.567Z,90.10
2019-02-19T20:32:47.612Z,90.20
2019-02-19T20:35:20.632Z,90.50
2019-02-19T20:37:54.294Z,90.60
2019-02-19T20:40:27.563Z,90.70
2019-02-19T20:43:00.794Z,90.60
2019-02-19T20:45:34.198Z,90.90
2019-02-19T20:48:07.059Z,90.90
2019-02-19T20:50:39.915Z,91.10
2019-02-19T20:53:12.947Z,91.20
2019-02-19T20:55:45.823Z,91.30
2019-02-19T20:58:18.693Z,91.40
2019-02-19T21:00:53.278Z,91.50
2019-02-19T21:03:26.396Z,91.50
2019-02-19T21:05:59.310Z,91.60
2019-02-19T21:08:33.893Z,91.60
2019-02-19T21:11:06.799Z,91.70
2019-02-19T21:13:40.167Z,91.60
2019-02-19T21:16:13.217Z,91.90
2019-02-19T21:18:46.336Z,92.00
2019-02-19T21:21:19.295Z,92.00
2019-02-19T21:23:52.564Z,92.20
2019-02-19T21:26:25.616Z,92.30
2019-02-19T21:28:58.527Z,92.90
2019-02-19T21:31:31.717Z,92.60
2019-02-19T21:34:04.468Z,92.60
2019-02-19T21:36:38.432Z,92.70
2019-02-19T21:39:12.779Z,92.90
2019-02-19T21:41:47.533Z,92.90
2019-02-19T21:44:20.662Z,92.90
2019-02-19T21:46:53.929Z,93.10
2019-02-19T21:49:26.853Z,93.00
2019-02-19T21:51:59.990Z,93.10
2019-02-19T21:54:33.318Z,93.30
2019-02-19T21:57:06.284Z,93.20
2019-02-19T21:59:39.374Z,93.20
2019-02-19T22:02:16.467Z,93.40
2019-02-19T22:04:47.332Z,93.40
2019-02-19T22:07:20.387Z,93.60
2019-02-19T22:09:53.502Z,93.60
2019-02-19T22:12:26.430Z,93.60
2019-02-19T22:14:59.402Z,93.70
2019-02-19T22:17:32.310Z,93.90
2019-02-19T22:20:08.594Z,93.90
2019-02-19T22:22:42.245Z,93.90
2019-02-19T22:25:15.166Z,94.10
2019-02-19T22:27:48.114Z,94.00
2019-02-19T22:30:22.058Z,94.20
2019-02-19T22:32:55.375Z,94.20
2019-02-19T22:35:28.523Z,94.20
2019-02-19T22:38:01.502Z,94.20
2019-02-19T22:40:34.345Z,94.20
2019-02-19T22:43:07.359Z,94.20
2019-02-19T22:45:40.429Z,94.10
2019-02-19T22:48:13.368Z,94.20
2019-02-19T22:50:46.333Z,94.10
2019-02-19T22:53:41.004Z,94.20
2019-02-19T22:56:20.854Z,94.20
2019-02-19T22:58:54.135Z,94.40
2019-02-19T23:01:39.434Z,94.50
2019-02-19T23:04:12.368Z,94.50
2019-02-19T23:06:45.342Z,94.60
2019-02-19T23:09:18.447Z,94.60
2019-02-19T23:11:51.571Z,94.50
2019-02-19T23:14:24.472Z,94.60
2019-02-19T23:16:57.453Z,94.60
2019-02-19T23:19:30.428Z,94.60
2019-02-19T23:22:03.321Z,94.50
2019-02-19T23:24:36.345Z,94.50
2019-02-19T23:27:09.471Z,94.30
2019-02-19T23:29:42.690Z,94.20
2019-02-19T23:32:15.590Z,94.20
2019-02-19T23:35:08.887Z,94.20
2019-02-19T23:37:41.939Z,94.00
2019-02-19T23:40:14.791Z,94.00
2019-02-19T23:42:47.785Z,93.90
2019-02-19T23:45:20.789Z,93.60
2019-02-19T23:47:53.820Z,93.80
2019-02-19T23:50:26.580Z,93.60
2019-02-19T23:52:59.495Z,93.50
2019-02-19T23:55:32.469Z,93.60
2019-02-19T23:58:05.334Z,93.60
